createdAt,value
2022-09-06T00:00:18.598Z,1.90
2022-09-06T00:02:47.204Z,2.05
2022-09-06T00:05:15.696Z,2.17
2022-09-06T00:07:45.066Z,2.00
2022-09-06T00:10:13.584Z,1.83
2022-09-06T00:12:41.657Z,2.10
2022-09-06T00:15:10.667Z,2.28
2022-09-06T00:17:38.635Z,2.38
2022-09-06T00:20:09.084Z,2.10
2022-09-06T00:22:37.525Z,1.85
2022-09-06T00:25:07.858Z,1.90
2022-09-06T00:27:36.158Z,2.13
2022-09-06T00:30:05.594Z,2.13
2022-09-06T00:32:34.040Z,1.95
2022-09-06T00:35:02.122Z,2.13
2022-09-06T00:37:30.110Z,2.17
2022-09-06T00:39:58.088Z,2.17
2022-09-06T00:42:27.473Z,2.30
2022-09-06T00:44:55.720Z,2.00
2022-09-06T00:47:23.927Z,2.20
2022-09-06T00:49:56.086Z,2.00
2022-09-06T00:52:25.156Z,2.20
2022-09-06T00:54:53.916Z,2.20
2022-09-06T00:57:26.912Z,1.90
2022-09-06T00:59:57.114Z,2.20
2022-09-06T01:02:25.121Z,2.42
2022-09-06T01:04:53.708Z,2.30
2022-09-06T01:07:32.844Z,2.13
2022-09-06T01:10:24.459Z,2.13
2022-09-06T01:13:02.140Z,2.67
2022-09-06T01:15:42.329Z,1.90
2022-09-06T01:18:22.617Z,2.15
2022-09-06T01:21:02.467Z,2.30
2022-09-06T01:24:04.341Z,2.35
2022-09-06T01:26:57.452Z,2.40
2022-09-06T01:29:33.151Z,2.40
2022-09-06T01:32:06.457Z,2.13
2022-09-06T01:34:40.777Z,2.20
2022-09-06T01:37:12.373Z,2.38
2022-09-06T01:39:41.930Z,2.10
2022-09-06T01:42:13.632Z,2.42
2022-09-06T01:44:46.866Z,2.17
2022-09-06T01:47:23.127Z,2.58
2022-09-06T01:50:13.410Z,2.22
2022-09-06T01:52:51.478Z,2.42
2022-09-06T01:55:27.995Z,2.45
2022-09-06T01:58:08.180Z,2.60
2022-09-06T02:00:45.732Z,2.45
2022-09-06T02:03:23.212Z,2.17
2022-09-06T02:05:55.151Z,2.65
2022-09-06T02:08:28.189Z,2.85
2022-09-06T02:10:59.589Z,2.78
2022-09-06T02:13:31.527Z,2.38
2022-09-06T02:16:03.952Z,2.38
2022-09-06T02:18:38.226Z,2.55
2022-09-06T02:21:07.731Z,2.13
2022-09-06T02:23:39.455Z,1.98
2022-09-06T02:26:12.089Z,2.58
2022-09-06T02:28:40.819Z,2.13
2022-09-06T02:31:16.944Z,2.22
2022-09-06T02:33:46.192Z,2.67
2022-09-06T02:36:15.820Z,2.00
2022-09-06T02:38:45.858Z,2.50
2022-09-06T02:41:14.949Z,2.20
2022-09-06T02:43:43.761Z,2.38
2022-09-06T02:46:13.704Z,2.40
2022-09-06T02:48:41.949Z,2.20
2022-09-06T02:51:10.760Z,2.50
2022-09-06T02:53:39.346Z,2.70
2022-09-06T02:56:07.936Z,2.35
2022-09-06T02:58:36.537Z,2.58
2022-09-06T03:01:05.121Z,2.38
2022-09-06T03:03:34.472Z,2.33
2022-09-06T03:06:02.509Z,2.10
2022-09-06T03:08:33.527Z,2.10
2022-09-06T03:11:02.117Z,2.50
2022-09-06T03:13:30.223Z,2.50
2022-09-06T03:16:00.336Z,2.25
2022-09-06T03:18:30.032Z,2.60
2022-09-06T03:20:59.607Z,2.70
2022-09-06T03:23:29.022Z,2.50
2022-09-06T03:25:57.441Z,2.47
2022-09-06T03:28:25.882Z,2.20
2022-09-06T03:30:54.450Z,2.25
2022-09-06T03:33:22.733Z,2.47
2022-09-06T03:35:53.005Z,2.20
2022-09-06T03:38:23.400Z,2.30
2022-09-06T03:40:52.788Z,2.33
2022-09-06T03:43:23.051Z,2.30
2022-09-06T03:45:53.220Z,2.30
2022-09-06T03:48:23.126Z,3.00
2022-09-06T03:50:52.854Z,2.40
2022-09-06T03:53:23.730Z,2.70
2022-09-06T03:55:53.794Z,2.28
2022-09-06T03:58:24.076Z,2.30
2022-09-06T04:01:01.986Z,2.33
2022-09-06T04:03:30.097Z,2.22
2022-09-06T04:05:58.083Z,2.25
2022-09-06T04:08:27.845Z,2.20
2022-09-06T04:10:56.886Z,2.40
2022-09-06T04:13:26.678Z,2.45
2022-09-06T04:15:55.111Z,2.38
2022-09-06T04:18:23.750Z,2.30
2022-09-06T04:20:53.707Z,2.58
2022-09-06T04:23:22.479Z,2.20
2022-09-06T04:25:53.546Z,2.20
2022-09-06T04:28:22.551Z,2.17
2022-09-06T04:30:54.374Z,2.17
2022-09-06T04:33:25.726Z,2.58
2022-09-06T04:35:54.296Z,2.00
2022-09-06T04:38:22.337Z,1.92
2022-09-06T04:40:51.680Z,2.00
2022-09-06T04:43:19.665Z,2.00
2022-09-06T04:45:47.747Z,2.70
2022-09-06T04:48:16.147Z,2.40
2022-09-06T04:50:44.146Z,2.20
2022-09-06T04:53:12.197Z,1.92
2022-09-06T04:55:40.462Z,2.10
2022-09-06T04:58:09.793Z,1.85
2022-09-06T05:00:38.587Z,2.28
2022-09-06T05:03:06.788Z,2.00
2022-09-06T05:05:34.753Z,2.08
2022-09-06T05:08:02.910Z,2.45
2022-09-06T05:10:30.902Z,2.50
2022-09-06T05:12:58.937Z,1.90
2022-09-06T05:15:28.304Z,2.03
2022-09-06T05:18:03.811Z,2.15
2022-09-06T05:20:32.361Z,2.28
2022-09-06T05:23:00.454Z,2.28
2022-09-06T05:25:28.422Z,2.03
2022-09-06T05:28:00.452Z,2.00
2022-09-06T05:30:30.016Z,1.85
2022-09-06T05:32:57.988Z,2.25
2022-09-06T05:35:26.200Z,1.73
2022-09-06T05:37:54.468Z,1.85
2022-09-06T05:40:22.823Z,2.30
2022-09-06T05:42:50.932Z,1.85
2022-09-06T05:45:19.114Z,1.70
2022-09-06T05:47:49.714Z,2.05
2022-09-06T05:50:18.284Z,2.38
2022-09-06T05:52:46.327Z,1.90
2022-09-06T05:55:14.561Z,1.88
2022-09-06T05:57:42.539Z,1.90
2022-09-06T06:00:12.286Z,1.92
2022-09-06T06:02:41.801Z,1.92
2022-09-06T06:05:11.421Z,2.05
2022-09-06T06:07:39.646Z,1.95
2022-09-06T06:10:08.385Z,1.90
2022-09-06T06:12:36.390Z,2.20
2022-09-06T06:15:05.762Z,2.00
2022-09-06T06:17:34.274Z,1.55
2022-09-06T06:20:02.960Z,1.90
2022-09-06T06:22:32.340Z,2.00
2022-09-06T06:25:00.355Z,1.75
2022-09-06T06:27:28.503Z,1.70
2022-09-06T06:29:56.713Z,1.88
2022-09-06T06:32:24.750Z,2.58
2022-09-06T06:34:52.826Z,2.03
2022-09-06T06:37:20.998Z,2.33
2022-09-06T06:39:50.407Z,1.77
2022-09-06T06:42:18.524Z,1.98
2022-09-06T06:44:53.711Z,1.90
2022-09-06T06:47:21.905Z,2.03
2022-09-06T06:49:50.044Z,1.80
2022-09-06T06:52:18.057Z,2.00
2022-09-06T06:54:46.225Z,2.15
2022-09-06T06:57:15.604Z,1.80
2022-09-06T06:59:43.637Z,1.73
2022-09-06T07:02:12.551Z,2.13
2022-09-06T07:04:40.776Z,1.85
2022-09-06T07:12:46.731Z,1.70
2022-09-06T07:15:14.848Z,1.80
2022-09-06T07:17:44.091Z,1.90
2022-09-06T07:20:13.497Z,1.77
2022-09-06T07:22:42.898Z,1.77
2022-09-06T07:25:14.464Z,2.03
2022-09-06T07:30:14.864Z,2.08
2022-09-06T07:32:42.870Z,2.00
2022-09-06T07:35:12.272Z,1.83
2022-09-06T07:37:40.760Z,2.15
2022-09-06T07:40:10.304Z,2.00
2022-09-06T07:42:38.489Z,2.00
2022-09-06T07:45:11.955Z,2.30
2022-09-06T07:53:24.546Z,1.90
2022-09-06T07:55:58.628Z,1.90
2022-09-06T07:58:26.647Z,2.92
2022-09-06T08:00:56.048Z,1.98
2022-09-06T08:03:24.123Z,2.05
2022-09-06T08:11:25.464Z,1.80
2022-09-06T08:13:55.597Z,1.95
2022-09-06T08:16:27.970Z,2.00
2022-09-06T08:18:58.024Z,2.17
2022-09-06T08:21:28.344Z,2.42
2022-09-06T08:23:59.045Z,1.95
2022-09-06T08:26:28.488Z,1.88
2022-09-06T08:28:58.830Z,2.22
2022-09-06T08:31:29.414Z,2.13
2022-09-06T08:33:57.650Z,2.20
2022-09-06T08:36:27.168Z,2.17
2022-09-06T08:38:55.317Z,2.30
2022-09-06T08:41:27.386Z,2.03
2022-09-06T08:46:54.442Z,2.10
2022-09-06T08:49:23.031Z,2.03
2022-09-06T08:52:07.586Z,2.13
2022-09-06T08:54:41.313Z,2.30
2022-09-06T08:57:20.332Z,2.53
2022-09-06T08:59:49.725Z,2.40
2022-09-06T09:02:22.511Z,2.50
2022-09-06T09:04:53.392Z,2.33
2022-09-06T09:07:45.924Z,2.40
2022-09-06T09:10:20.029Z,2.67
2022-09-06T09:12:49.737Z,2.40
2022-09-06T09:15:20.209Z,2.33
2022-09-06T09:17:52.575Z,2.20
2022-09-06T09:20:21.110Z,2.33
2022-09-06T09:22:49.604Z,2.33
2022-09-06T09:25:22.331Z,2.58
2022-09-06T09:27:57.507Z,2.33
2022-09-06T09:33:33.403Z,2.47
2022-09-06T09:36:03.192Z,2.72
2022-09-06T09:38:33.722Z,2.33
2022-09-06T09:41:04.526Z,2.20
2022-09-06T09:43:35.377Z,2.88
2022-09-06T09:46:30.694Z,2.90
2022-09-06T09:49:06.647Z,2.90
2022-09-06T09:51:36.382Z,2.50
2022-09-06T09:54:06.597Z,2.83
2022-09-06T09:56:48.307Z,2.47
2022-09-06T09:59:23.503Z,2.75
2022-09-06T10:01:55.254Z,2.70
2022-09-06T10:04:46.113Z,2.65
2022-09-06T10:07:16.456Z,2.70
2022-09-06T10:09:47.345Z,2.95
2022-09-06T10:12:19.233Z,2.70
2022-09-06T10:14:49.530Z,2.47
2022-09-06T10:17:23.288Z,2.65
2022-09-06T10:19:53.039Z,2.40
2022-09-06T10:22:29.083Z,2.72
2022-09-06T10:25:30.201Z,2.75
2022-09-06T10:28:24.735Z,3.03
2022-09-06T10:31:25.377Z,2.70
2022-09-06T10:34:05.923Z,2.75
2022-09-06T10:36:37.345Z,2.50
2022-09-06T10:39:13.005Z,2.83
2022-09-06T10:41:54.496Z,2.70
2022-09-06T10:44:38.923Z,3.20
2022-09-06T10:47:11.862Z,2.50
2022-09-06T10:49:44.716Z,3.20
2022-09-06T10:52:18.425Z,2.78
2022-09-06T10:54:47.347Z,2.88
2022-09-06T11:00:13.628Z,2.97
2022-09-06T11:02:48.554Z,2.70
2022-09-06T11:11:07.398Z,2.83
2022-09-06T11:13:35.379Z,2.60
2022-09-06T11:16:09.139Z,3.10
2022-09-06T11:18:43.709Z,3.10
2022-09-06T11:21:31.194Z,2.63
2022-09-06T11:24:11.073Z,2.78
2022-09-06T11:26:45.451Z,2.85
2022-09-06T11:29:20.402Z,2.90
2022-09-06T11:34:45.655Z,2.83
2022-09-06T11:37:27.095Z,2.80
2022-09-06T11:40:32.377Z,2.38
2022-09-06T11:43:16.533Z,2.38
2022-09-06T11:45:47.717Z,2.30
2022-09-06T11:48:35.027Z,2.33
2022-09-06T11:51:07.340Z,2.75
2022-09-06T11:53:57.672Z,2.80
2022-09-06T11:56:32.562Z,2.92
2022-09-06T11:59:07.083Z,2.72
2022-09-06T12:01:40.851Z,2.65
2022-09-06T12:04:11.867Z,2.80
2022-09-06T12:06:43.597Z,3.13
2022-09-06T12:09:33.128Z,2.70
2022-09-06T12:12:03.439Z,2.70
2022-09-06T12:14:34.378Z,2.30
2022-09-06T12:17:26.245Z,2.25
2022-09-06T12:20:06.195Z,2.38
2022-09-06T12:23:04.451Z,2.70
2022-09-06T12:25:58.448Z,2.47
2022-09-06T12:28:36.208Z,2.45
2022-09-06T12:31:33.752Z,2.90
2022-09-06T12:34:09.010Z,2.42
2022-09-06T12:36:37.320Z,2.30
2022-09-06T12:39:10.420Z,2.80
2022-09-06T12:41:43.503Z,2.75
2022-09-06T12:44:15.652Z,2.90
2022-09-06T12:46:47.865Z,2.33
2022-09-06T12:49:23.297Z,3.25
2022-09-06T12:51:51.345Z,2.53
2022-09-06T12:54:23.338Z,2.58
2022-09-06T12:56:52.417Z,2.58
2022-09-06T12:59:24.503Z,2.90
2022-09-06T13:02:00.389Z,2.40
2022-09-06T13:04:37.699Z,2.40
2022-09-06T13:07:07.561Z,2.60
2022-09-06T13:09:35.882Z,2.50
2022-09-06T13:12:09.421Z,2.97
2022-09-06T13:14:38.791Z,3.22
2022-09-06T13:17:06.795Z,3.08
2022-09-06T13:19:36.972Z,3.13
2022-09-06T13:22:07.508Z,3.50
2022-09-06T13:24:47.299Z,2.83
2022-09-06T13:27:26.429Z,3.20
2022-09-06T13:30:00.822Z,2.72
2022-09-06T13:32:29.983Z,2.78
2022-09-06T13:35:00.804Z,3.10
2022-09-06T13:37:30.949Z,3.20
2022-09-06T13:39:59.699Z,2.90
2022-09-06T13:42:30.672Z,2.63
2022-09-06T13:45:16.148Z,3.03
2022-09-06T13:47:44.247Z,3.05
2022-09-06T13:50:12.241Z,2.95
2022-09-06T13:52:40.224Z,2.88
2022-09-06T13:55:09.394Z,2.85
2022-09-06T13:57:37.409Z,2.90
2022-09-06T14:00:08.697Z,2.83
2022-09-06T14:02:37.903Z,3.30
2022-09-06T14:05:06.608Z,3.55
2022-09-06T14:07:34.723Z,3.95
2022-09-06T14:10:02.679Z,2.97
2022-09-06T14:12:30.759Z,2.75
2022-09-06T14:14:58.817Z,3.60
2022-09-06T14:17:28.388Z,2.78
2022-09-06T14:19:56.430Z,2.88
2022-09-06T14:22:24.610Z,3.08
2022-09-06T14:24:52.834Z,3.08
2022-09-06T14:27:20.891Z,3.25
2022-09-06T14:29:49.265Z,3.13
2022-09-06T14:32:21.871Z,3.17
2022-09-06T14:34:51.965Z,3.00
2022-09-06T14:37:21.574Z,2.60
2022-09-06T14:39:50.204Z,2.67
2022-09-06T14:42:18.332Z,3.08
2022-09-06T14:44:46.481Z,3.40
2022-09-06T14:47:14.598Z,2.47
2022-09-06T14:49:42.674Z,3.13
2022-09-06T14:52:12.125Z,2.80
2022-09-06T14:54:40.274Z,2.80
2022-09-06T14:57:08.431Z,2.80
2022-09-06T14:59:36.593Z,3.40
2022-09-06T15:02:05.449Z,2.63
2022-09-06T15:04:33.580Z,2.85
2022-09-06T15:07:01.773Z,2.95
2022-09-06T15:09:31.187Z,3.03
2022-09-06T15:11:59.309Z,2.47
2022-09-06T15:14:29.287Z,2.95
2022-09-06T15:16:59.902Z,3.15
2022-09-06T15:19:30.330Z,2.72
2022-09-06T15:21:58.852Z,2.83
2022-09-06T15:24:27.135Z,3.00
2022-09-06T15:26:56.704Z,3.13
2022-09-06T15:29:24.931Z,2.47
2022-09-06T15:31:53.095Z,2.95
2022-09-06T15:34:22.650Z,2.90
2022-09-06T15:36:51.160Z,2.40
2022-09-06T15:39:19.817Z,3.10
2022-09-06T15:41:48.122Z,2.53
2022-09-06T15:44:20.735Z,2.63
2022-09-06T15:46:50.953Z,2.90
2022-09-06T15:49:26.941Z,2.97
2022-09-06T15:51:56.629Z,2.80
2022-09-06T15:54:45.079Z,2.72
2022-09-06T15:57:14.791Z,2.58
2022-09-06T15:59:44.829Z,2.50
2022-09-06T16:02:13.544Z,3.15
2022-09-06T16:04:41.865Z,2.70
2022-09-06T16:07:10.011Z,2.55
2022-09-06T16:09:38.057Z,2.70
2022-09-06T16:12:06.692Z,2.70
2022-09-06T16:14:35.646Z,2.70
2022-09-06T16:17:05.230Z,2.45
2022-09-06T16:19:33.499Z,2.60
2022-09-06T16:22:02.452Z,2.97
2022-09-06T16:24:30.596Z,3.08
2022-09-06T16:26:59.074Z,2.67
2022-09-06T16:29:27.409Z,2.55
2022-09-06T16:31:59.647Z,2.45
2022-09-06T16:34:29.149Z,2.38
2022-09-06T16:36:57.256Z,2.60
2022-09-06T16:39:25.386Z,2.80
2022-09-06T16:41:53.619Z,2.47
2022-09-06T16:44:21.671Z,2.63
2022-09-06T16:46:50.904Z,2.83
2022-09-06T16:49:19.588Z,2.50
2022-09-06T16:51:50.668Z,2.50
2022-09-06T16:54:19.352Z,2.40
2022-09-06T16:56:47.587Z,2.55
2022-09-06T16:59:17.131Z,2.95
2022-09-06T17:01:45.533Z,2.67
2022-09-06T17:04:14.017Z,2.80
2022-09-06T17:06:45.493Z,2.78
2022-09-06T17:09:17.708Z,2.53
2022-09-06T17:11:47.563Z,2.15
2022-09-06T17:14:15.684Z,2.50
2022-09-06T17:17:01.298Z,2.28
2022-09-06T17:19:29.928Z,2.53
2022-09-06T17:21:58.556Z,2.38
2022-09-06T17:24:28.114Z,2.83
2022-09-06T17:26:56.345Z,2.90
2022-09-06T17:29:28.026Z,2.50
2022-09-06T17:31:56.653Z,2.55
2022-09-06T17:34:24.737Z,2.47
2022-09-06T17:36:53.790Z,2.53
2022-09-06T17:39:22.439Z,2.38
2022-09-06T17:41:54.181Z,2.90
2022-09-06T17:44:25.061Z,2.83
2022-09-06T17:47:11.921Z,2.53
2022-09-06T17:49:40.958Z,2.38
2022-09-06T17:52:09.034Z,2.45
2022-09-06T17:54:37.159Z,2.55
2022-09-06T17:57:06.660Z,2.40
2022-09-06T17:59:36.012Z,2.17
2022-09-06T18:02:04.958Z,2.15
2022-09-06T18:04:33.314Z,2.60
2022-09-06T18:07:01.511Z,2.47
2022-09-06T18:09:29.856Z,2.63
2022-09-06T18:11:58.571Z,2.47
2022-09-06T18:14:28.442Z,2.42
2022-09-06T18:16:56.793Z,2.63
2022-09-06T18:19:24.958Z,2.58
2022-09-06T18:21:53.075Z,2.38
2022-09-06T18:24:22.267Z,2.50
2022-09-06T18:26:50.473Z,2.80
2022-09-06T18:29:18.566Z,2.70
2022-09-06T18:31:48.135Z,2.72
2022-09-06T18:34:16.919Z,2.38
2022-09-06T18:36:45.133Z,2.40
2022-09-06T18:39:13.395Z,2.20
2022-09-06T18:41:58.819Z,2.42
2022-09-06T18:44:32.250Z,2.30
2022-09-06T18:47:05.195Z,2.30
2022-09-06T18:49:34.563Z,2.40
2022-09-06T18:52:02.871Z,2.70
2022-09-06T18:54:31.160Z,2.65
2022-09-06T18:56:59.881Z,2.80
2022-09-06T18:59:28.213Z,2.60
2022-09-06T19:01:56.490Z,2.92
2022-09-06T19:04:26.200Z,2.75
2022-09-06T19:06:54.357Z,2.83
2022-09-06T19:09:23.185Z,3.05
2022-09-06T19:11:52.772Z,2.65
2022-09-06T19:14:21.715Z,2.65
2022-09-06T19:16:50.726Z,2.65
2022-09-06T19:19:18.829Z,2.58
2022-09-06T19:21:48.277Z,2.88
2022-09-06T19:24:16.635Z,2.88
2022-09-06T19:26:46.661Z,2.97
2022-09-06T19:29:17.375Z,2.45
2022-09-06T19:31:47.028Z,2.85
2022-09-06T19:34:15.838Z,3.03
2022-09-06T19:36:45.822Z,2.70
2022-09-06T19:39:17.305Z,2.75
2022-09-06T19:41:47.277Z,2.85
2022-09-06T19:44:16.798Z,2.95
2022-09-06T19:46:46.822Z,3.35
2022-09-06T19:49:16.826Z,3.03
2022-09-06T19:51:46.260Z,2.75
2022-09-06T19:54:16.323Z,3.25
2022-09-06T19:56:45.226Z,2.45
2022-09-06T19:59:15.142Z,2.60
2022-09-06T20:01:44.915Z,2.92
2022-09-06T20:04:14.461Z,2.60
2022-09-06T20:06:42.794Z,2.85
2022-09-06T20:09:11.811Z,2.63
2022-09-06T20:11:42.637Z,2.70
2022-09-06T20:14:11.524Z,2.65
2022-09-06T20:16:42.046Z,2.75
2022-09-06T20:19:12.330Z,7.50
2022-09-06T20:21:40.464Z,4.90
2022-09-06T20:24:09.106Z,5.13
2022-09-06T20:26:37.697Z,4.00
2022-09-06T20:29:07.946Z,3.10
2022-09-06T20:31:37.663Z,3.15
2022-09-06T20:34:07.358Z,3.30
2022-09-06T20:36:35.506Z,3.42
2022-09-06T20:39:03.655Z,3.47
2022-09-06T20:41:31.973Z,3.40
2022-09-06T20:44:00.866Z,3.63
2022-09-06T20:46:32.140Z,3.20
2022-09-06T20:49:04.209Z,3.35
2022-09-06T20:51:33.334Z,3.03
2022-09-06T20:54:02.984Z,3.33
2022-09-06T20:56:33.168Z,3.22
2022-09-06T20:59:02.927Z,2.90
2022-09-06T21:01:36.132Z,2.72
2022-09-06T21:04:06.826Z,3.08
2022-09-06T21:06:36.880Z,3.05
2022-09-06T21:09:06.601Z,2.90
2022-09-06T21:11:35.076Z,3.03
2022-09-06T21:14:03.712Z,3.10
2022-09-06T21:16:33.851Z,2.55
2022-09-06T21:19:04.273Z,2.85
2022-09-06T21:21:34.434Z,2.90
2022-09-06T21:24:03.401Z,2.88
2022-09-06T21:26:31.582Z,2.90
2022-09-06T21:28:59.686Z,2.83
2022-09-06T21:31:30.039Z,2.92
2022-09-06T21:34:02.363Z,3.00
2022-09-06T21:36:32.009Z,3.42
2022-09-06T21:39:02.519Z,2.95
2022-09-06T21:41:31.382Z,2.90
2022-09-06T21:44:01.157Z,2.90
2022-09-06T21:46:33.553Z,3.05
2022-09-06T21:49:04.857Z,2.60
2022-09-06T21:51:33.413Z,2.80
2022-09-06T21:54:04.244Z,2.60
2022-09-06T21:56:33.884Z,2.78
2022-09-06T21:59:02.036Z,2.90
2022-09-06T22:01:32.673Z,3.00
2022-09-06T22:04:02.247Z,2.67
2022-09-06T22:06:33.562Z,2.97
2022-09-06T22:09:03.704Z,2.97
2022-09-06T22:11:33.881Z,2.80
2022-09-06T22:14:03.917Z,3.17
2022-09-06T22:16:33.592Z,3.05
2022-09-06T22:19:03.592Z,2.70
2022-09-06T22:21:34.594Z,3.00
2022-09-06T22:24:05.305Z,3.10
2022-09-06T22:26:36.541Z,2.83
2022-09-06T22:29:10.763Z,2.80
2022-09-06T22:31:39.306Z,2.50
2022-09-06T22:34:07.826Z,2.80
2022-09-06T22:36:37.403Z,2.90
2022-09-06T22:39:05.670Z,2.50
2022-09-06T22:41:35.007Z,2.70
2022-09-06T22:44:04.238Z,2.70
2022-09-06T22:46:33.033Z,2.83
2022-09-06T22:49:02.185Z,2.80
2022-09-06T22:51:30.368Z,3.00
2022-09-06T22:53:59.747Z,2.63
2022-09-06T22:56:27.932Z,2.42
2022-09-06T22:58:56.164Z,2.50
2022-09-06T23:01:24.345Z,2.63
2022-09-06T23:03:52.734Z,2.92
2022-09-06T23:06:21.626Z,2.60
2022-09-06T23:08:49.714Z,2.45
2022-09-06T23:11:20.232Z,2.80
2022-09-06T23:13:48.627Z,2.13
2022-09-06T23:16:18.741Z,2.47
2022-09-06T23:18:47.515Z,2.38
2022-09-06T23:21:18.027Z,2.42
2022-09-06T23:23:47.154Z,2.60
2022-09-06T23:26:17.232Z,2.30
2022-09-06T23:28:56.248Z,2.72
2022-09-06T23:31:25.683Z,2.42
2022-09-06T23:33:54.827Z,2.33
2022-09-06T23:36:22.979Z,3.00
2022-09-06T23:38:51.456Z,2.30
2022-09-06T23:41:19.606Z,2.53
2022-09-06T23:43:49.413Z,2.58
2022-09-06T23:46:17.645Z,2.58
2022-09-06T23:48:45.758Z,2.70
2022-09-06T23:51:14.436Z,2.70
2022-09-06T23:53:42.519Z,2.75
2022-09-06T23:56:11.156Z,2.60
2022-09-06T23:58:39.835Z,3.08
